sensor_id;sensor_type;location;lat;lon;timestamp;P1;durP1;ratioP1;P2;durP2;ratioP2
64667;SDS011;51077;42.716;23.344;2023-12-20T00:01:16;167.07;;;104.63;;
64667;SDS011;51077;42.716;23.344;2023-12-20T00:03:41;173.27;;;105.20;;
64667;SDS011;51077;42.716;23.344;2023-12-20T00:06:07;171.10;;;101.67;;
64667;SDS011;51077;42.716;23.344;2023-12-20T00:08:32;179.77;;;108.07;;
64667;SDS011;51077;42.716;23.344;2023-12-20T00:10:58;170.77;;;104.60;;
64667;SDS011;51077;42.716;23.344;2023-12-20T00:13:23;171.20;;;104.90;;
64667;SDS011;51077;42.716;23.344;2023-12-20T00:15:48;179.33;;;107.63;;
64667;SDS011;51077;42.716;23.344;2023-12-20T00:18:14;168.17;;;100.83;;
64667;SDS011;51077;42.716;23.344;2023-12-20T00:20:39;164.77;;;101.00;;
64667;SDS011;51077;42.716;23.344;2023-12-20T00:23:04;162.37;;;100.67;;
64667;SDS011;51077;42.716;23.344;2023-12-20T00:25:30;167.90;;;99.93;;
64667;SDS011;51077;42.716;23.344;2023-12-20T00:27:55;156.03;;;96.97;;
64667;SDS011;51077;42.716;23.344;2023-12-20T00:30:20;159.77;;;96.23;;
64667;SDS011;51077;42.716;23.344;2023-12-20T00:32:46;156.50;;;95.77;;
64667;SDS011;51077;42.716;23.344;2023-12-20T00:35:15;165.97;;;97.10;;
64667;SDS011;51077;42.716;23.344;2023-12-20T00:37:41;163.85;;;97.75;;
64667;SDS011;51077;42.716;23.344;2023-12-20T00:40:07;162.00;;;98.43;;
64667;SDS011;51077;42.716;23.344;2023-12-20T00:42:33;158.38;;;93.57;;
64667;SDS011;51077;42.716;23.344;2023-12-20T00:45:00;153.45;;;95.22;;
64667;SDS011;51077;42.716;23.344;2023-12-20T00:47:25;165.00;;;94.23;;
64667;SDS011;51077;42.716;23.344;2023-12-20T00:49:51;152.50;;;91.90;;
64667;SDS011;51077;42.716;23.344;2023-12-20T00:52:17;168.82;;;94.50;;
64667;SDS011;51077;42.716;23.344;2023-12-20T00:54:43;150.35;;;91.85;;
64667;SDS011;51077;42.716;23.344;2023-12-20T00:57:09;149.07;;;90.40;;
64667;SDS011;51077;42.716;23.344;2023-12-20T00:59:34;153.40;;;87.43;;
64667;SDS011;51077;42.716;23.344;2023-12-20T01:02:00;145.80;;;87.77;;
64667;SDS011;51077;42.716;23.344;2023-12-20T01:04:25;141.67;;;84.23;;
64667;SDS011;51077;42.716;23.344;2023-12-20T01:06:51;142.33;;;84.50;;
64667;SDS011;51077;42.716;23.344;2023-12-20T01:09:17;139.30;;;82.35;;
64667;SDS011;51077;42.716;23.344;2023-12-20T01:11:43;136.02;;;81.38;;
64667;SDS011;51077;42.716;23.344;2023-12-20T01:14:09;132.20;;;79.13;;
64667;SDS011;51077;42.716;23.344;2023-12-20T01:16:34;129.60;;;79.07;;
64667;SDS011;51077;42.716;23.344;2023-12-20T01:19:00;140.77;;;76.87;;
64667;SDS011;51077;42.716;23.344;2023-12-20T01:21:25;136.47;;;76.80;;
64667;SDS011;51077;42.716;23.344;2023-12-20T01:23:50;132.53;;;74.80;;
64667;SDS011;51077;42.716;23.344;2023-12-20T01:26:16;125.07;;;74.77;;
64667;SDS011;51077;42.716;23.344;2023-12-20T01:28:41;121.40;;;71.83;;
64667;SDS011;51077;42.716;23.344;2023-12-20T01:31:07;124.30;;;70.87;;
64667;SDS011;51077;42.716;23.344;2023-12-20T01:33:33;115.60;;;69.93;;
64667;SDS011;51077;42.716;23.344;2023-12-20T01:35:58;125.43;;;70.93;;
64667;SDS011;51077;42.716;23.344;2023-12-20T01:38:24;118.07;;;67.57;;
64667;SDS011;51077;42.716;23.344;2023-12-20T01:40:49;121.23;;;66.40;;
64667;SDS011;51077;42.716;23.344;2023-12-20T01:43:14;111.53;;;66.33;;
64667;SDS011;51077;42.716;23.344;2023-12-20T01:45:40;114.43;;;64.20;;
64667;SDS011;51077;42.716;23.344;2023-12-20T01:48:05;114.20;;;66.90;;
64667;SDS011;51077;42.716;23.344;2023-12-20T01:50:32;118.65;;;64.95;;
64667;SDS011;51077;42.716;23.344;2023-12-20T01:53:01;111.07;;;61.58;;
64667;SDS011;51077;42.716;23.344;2023-12-20T01:55:27;105.90;;;60.47;;
64667;SDS011;51077;42.716;23.344;2023-12-20T01:57:54;108.75;;;60.55;;
64667;SDS011;51077;42.716;23.344;2023-12-20T02:00:20;102.90;;;60.13;;
64667;SDS011;51077;42.716;23.344;2023-12-20T02:02:48;100.22;;;58.00;;
64667;SDS011;51077;42.716;23.344;2023-12-20T02:05:15;107.15;;;60.05;;
64667;SDS011;51077;42.716;23.344;2023-12-20T02:07:42;106.50;;;58.95;;
64667;SDS011;51077;42.716;23.344;2023-12-20T02:10:07;104.57;;;57.50;;
64667;SDS011;51077;42.716;23.344;2023-12-20T02:12:33;99.67;;;56.53;;
64667;SDS011;51077;42.716;23.344;2023-12-20T02:14:58;98.53;;;57.53;;
64667;SDS011;51077;42.716;23.344;2023-12-20T02:17:24;98.43;;;54.63;;
64667;SDS011;51077;42.716;23.344;2023-12-20T02:19:50;93.15;;;53.67;;
64667;SDS011;51077;42.716;23.344;2023-12-20T02:22:16;95.57;;;55.77;;
64667;SDS011;51077;42.716;23.344;2023-12-20T02:24:41;92.17;;;53.23;;
64667;SDS011;51077;42.716;23.344;2023-12-20T02:27:07;93.70;;;54.33;;
64667;SDS011;51077;42.716;23.344;2023-12-20T02:29:33;88.28;;;51.67;;
64667;SDS011;51077;42.716;23.344;2023-12-20T02:31:59;91.20;;;53.20;;
64667;SDS011;51077;42.716;23.344;2023-12-20T02:34:25;89.53;;;50.80;;
64667;SDS011;51077;42.716;23.344;2023-12-20T02:36:50;91.30;;;51.47;;
64667;SDS011;51077;42.716;23.344;2023-12-20T02:39:16;87.73;;;50.10;;
64667;SDS011;51077;42.716;23.344;2023-12-20T02:41:41;95.27;;;47.57;;
64667;SDS011;51077;42.716;23.344;2023-12-20T02:44:07;88.70;;;51.20;;
64667;SDS011;51077;42.716;23.344;2023-12-20T02:46:33;84.55;;;47.83;;
64667;SDS011;51077;42.716;23.344;2023-12-20T02:48:59;89.00;;;46.60;;
64667;SDS011;51077;42.716;23.344;2023-12-20T02:51:24;85.13;;;45.77;;
64667;SDS011;51077;42.716;23.344;2023-12-20T02:53:50;85.13;;;46.47;;
64667;SDS011;51077;42.716;23.344;2023-12-20T02:56:15;83.70;;;46.00;;
64667;SDS011;51077;42.716;23.344;2023-12-20T02:58:40;86.10;;;45.87;;
64667;SDS011;51077;42.716;23.344;2023-12-20T03:01:06;76.77;;;43.33;;
64667;SDS011;51077;42.716;23.344;2023-12-20T03:03:31;75.13;;;42.80;;
64667;SDS011;51077;42.716;23.344;2023-12-20T03:05:57;76.50;;;43.83;;
64667;SDS011;51077;42.716;23.344;2023-12-20T03:08:22;76.00;;;43.30;;
64667;SDS011;51077;42.716;23.344;2023-12-20T03:10:47;74.83;;;42.00;;
64667;SDS011;51077;42.716;23.344;2023-12-20T03:13:13;69.87;;;41.63;;
64667;SDS011;51077;42.716;23.344;2023-12-20T03:15:38;74.07;;;42.33;;
64667;SDS011;51077;42.716;23.344;2023-12-20T03:18:04;73.33;;;41.73;;
64667;SDS011;51077;42.716;23.344;2023-12-20T03:20:29;75.80;;;41.80;;
64667;SDS011;51077;42.716;23.344;2023-12-20T03:22:58;72.45;;;39.40;;
64667;SDS011;51077;42.716;23.344;2023-12-20T03:25:23;69.67;;;39.90;;
64667;SDS011;51077;42.716;23.344;2023-12-20T03:27:48;68.20;;;38.17;;
64667;SDS011;51077;42.716;23.344;2023-12-20T03:30:14;66.40;;;38.37;;
64667;SDS011;51077;42.716;23.344;2023-12-20T03:32:39;67.17;;;37.07;;
64667;SDS011;51077;42.716;23.344;2023-12-20T03:35:05;65.63;;;37.60;;
64667;SDS011;51077;42.716;23.344;2023-12-20T03:37:31;64.15;;;35.65;;
64667;SDS011;51077;42.716;23.344;2023-12-20T03:39:56;60.97;;;36.70;;
64667;SDS011;51077;42.716;23.344;2023-12-20T03:42:21;59.67;;;35.60;;
64667;SDS011;51077;42.716;23.344;2023-12-20T03:44:47;61.37;;;36.30;;
64667;SDS011;51077;42.716;23.344;2023-12-20T03:47:12;65.80;;;36.37;;
64667;SDS011;51077;42.716;23.344;2023-12-20T03:49:37;60.70;;;34.50;;
64667;SDS011;51077;42.716;23.344;2023-12-20T03:52:03;57.42;;;33.63;;
64667;SDS011;51077;42.716;23.344;2023-12-20T03:54:29;56.47;;;32.83;;
64667;SDS011;51077;42.716;23.344;2023-12-20T03:56:55;62.13;;;32.43;;
64667;SDS011;51077;42.716;23.344;2023-12-20T03:59:20;60.30;;;34.57;;
64667;SDS011;51077;42.716;23.344;2023-12-20T04:01:45;53.67;;;32.03;;
64667;SDS011;51077;42.716;23.344;2023-12-20T04:04:11;57.00;;;31.60;;
64667;SDS011;51077;42.716;23.344;2023-12-20T04:06:37;51.77;;;31.47;;
64667;SDS011;51077;42.716;23.344;2023-12-20T04:09:03;53.65;;;31.17;;
64667;SDS011;51077;42.716;23.344;2023-12-20T04:11:28;56.80;;;31.17;;
64667;SDS011;51077;42.716;23.344;2023-12-20T04:13:54;49.80;;;29.87;;
64667;SDS011;51077;42.716;23.344;2023-12-20T04:16:19;54.43;;;31.13;;
64667;SDS011;51077;42.716;23.344;2023-12-20T04:18:44;49.47;;;29.33;;
64667;SDS011;51077;42.716;23.344;2023-12-20T04:21:10;51.50;;;29.40;;
64667;SDS011;51077;42.716;23.344;2023-12-20T04:23:35;55.13;;;30.47;;
64667;SDS011;51077;42.716;23.344;2023-12-20T04:26:00;49.03;;;28.17;;
64667;SDS011;51077;42.716;23.344;2023-12-20T04:28:26;49.10;;;28.87;;
64667;SDS011;51077;42.716;23.344;2023-12-20T04:30:51;48.47;;;27.90;;
64667;SDS011;51077;42.716;23.344;2023-12-20T04:33:17;48.47;;;28.90;;
64667;SDS011;51077;42.716;23.344;2023-12-20T04:35:42;48.13;;;28.47;;
64667;SDS011;51077;42.716;23.344;2023-12-20T04:38:08;50.23;;;29.30;;
64667;SDS011;51077;42.716;23.344;2023-12-20T04:40:34;47.25;;;27.05;;
64667;SDS011;51077;42.716;23.344;2023-12-20T04:42:59;46.27;;;27.77;;
64667;SDS011;51077;42.716;23.344;2023-12-20T04:45:24;47.97;;;28.77;;
64667;SDS011;51077;42.716;23.344;2023-12-20T04:47:50;51.50;;;28.47;;
64667;SDS011;51077;42.716;23.344;2023-12-20T04:50:16;48.90;;;30.13;;
64667;SDS011;51077;42.716;23.344;2023-12-20T04:52:42;45.75;;;27.10;;
64667;SDS011;51077;42.716;23.344;2023-12-20T04:55:08;41.67;;;26.77;;
64667;SDS011;51077;42.716;23.344;2023-12-20T04:57:34;50.60;;;27.50;;
64667;SDS011;51077;42.716;23.344;2023-12-20T05:00:00;46.47;;;30.33;;
64667;SDS011;51077;42.716;23.344;2023-12-20T05:02:25;46.17;;;27.13;;
64667;SDS011;51077;42.716;23.344;2023-12-20T05:04:51;47.03;;;28.77;;
64667;SDS011;51077;42.716;23.344;2023-12-20T05:07:16;46.27;;;28.63;;
64667;SDS011;51077;42.716;23.344;2023-12-20T05:09:41;48.53;;;27.63;;
64667;SDS011;51077;42.716;23.344;2023-12-20T05:12:07;47.17;;;27.90;;
64667;SDS011;51077;42.716;23.344;2023-12-20T05:14:32;47.53;;;27.83;;
64667;SDS011;51077;42.716;23.344;2023-12-20T05:16:58;48.13;;;29.27;;
64667;SDS011;51077;42.716;23.344;2023-12-20T05:19:23;46.23;;;27.63;;
64667;SDS011;51077;42.716;23.344;2023-12-20T05:21:49;51.97;;;29.00;;
64667;SDS011;51077;42.716;23.344;2023-12-20T05:24:15;45.77;;;27.83;;
64667;SDS011;51077;42.716;23.344;2023-12-20T05:26:40;44.20;;;27.40;;
64667;SDS011;51077;42.716;23.344;2023-12-20T05:29:06;49.10;;;29.23;;
64667;SDS011;51077;42.716;23.344;2023-12-20T05:31:31;48.10;;;26.87;;
64667;SDS011;51077;42.716;23.344;2023-12-20T05:33:57;45.83;;;28.43;;
64667;SDS011;51077;42.716;23.344;2023-12-20T05:36:22;50.80;;;28.63;;
64667;SDS011;51077;42.716;23.344;2023-12-20T05:38:48;49.10;;;28.93;;
64667;SDS011;51077;42.716;23.344;2023-12-20T05:41:13;45.37;;;28.10;;
64667;SDS011;51077;42.716;23.344;2023-12-20T05:43:39;47.03;;;27.87;;
64667;SDS011;51077;42.716;23.344;2023-12-20T05:46:04;48.38;;;28.25;;
64667;SDS011;51077;42.716;23.344;2023-12-20T05:48:30;47.63;;;28.90;;
64667;SDS011;51077;42.716;23.344;2023-12-20T05:50:55;45.07;;;28.53;;
64667;SDS011;51077;42.716;23.344;2023-12-20T05:53:21;49.80;;;30.50;;
64667;SDS011;51077;42.716;23.344;2023-12-20T05:55:46;47.73;;;29.20;;
64667;SDS011;51077;42.716;23.344;2023-12-20T05:58:11;45.90;;;27.47;;
64667;SDS011;51077;42.716;23.344;2023-12-20T06:00:37;49.70;;;29.53;;
64667;SDS011;51077;42.716;23.344;2023-12-20T06:03:03;47.17;;;28.20;;
64667;SDS011;51077;42.716;23.344;2023-12-20T06:05:30;48.70;;;28.98;;
64667;SDS011;51077;42.716;23.344;2023-12-20T06:07:55;46.42;;;28.75;;
64667;SDS011;51077;42.716;23.344;2023-12-20T06:10:26;51.65;;;30.10;;
64667;SDS011;51077;42.716;23.344;2023-12-20T06:12:52;51.47;;;29.98;;
64667;SDS011;51077;42.716;23.344;2023-12-20T06:15:17;50.13;;;29.67;;
64667;SDS011;51077;42.716;23.344;2023-12-20T06:17:43;50.22;;;29.80;;
64667;SDS011;51077;42.716;23.344;2023-12-20T06:20:09;52.97;;;31.10;;
64667;SDS011;51077;42.716;23.344;2023-12-20T06:22:35;50.15;;;29.58;;
64667;SDS011;51077;42.716;23.344;2023-12-20T06:25:01;53.90;;;30.83;;
64667;SDS011;51077;42.716;23.344;2023-12-20T06:27:28;50.33;;;30.45;;
64667;SDS011;51077;42.716;23.344;2023-12-20T06:29:53;46.55;;;29.45;;
64667;SDS011;51077;42.716;23.344;2023-12-20T06:32:19;50.43;;;29.83;;
64667;SDS011;51077;42.716;23.344;2023-12-20T06:34:44;48.83;;;28.57;;
64667;SDS011;51077;42.716;23.344;2023-12-20T06:37:10;51.83;;;29.83;;
64667;SDS011;51077;42.716;23.344;2023-12-20T06:39:35;51.13;;;27.80;;
64667;SDS011;51077;42.716;23.344;2023-12-20T06:42:00;48.90;;;29.07;;
64667;SDS011;51077;42.716;23.344;2023-12-20T06:44:26;43.13;;;27.30;;
64667;SDS011;51077;42.716;23.344;2023-12-20T06:46:51;50.60;;;28.03;;
64667;SDS011;51077;42.716;23.344;2023-12-20T06:49:17;51.07;;;30.20;;
64667;SDS011;51077;42.716;23.344;2023-12-20T06:51:43;55.08;;;29.98;;
64667;SDS011;51077;42.716;23.344;2023-12-20T06:54:08;49.70;;;29.07;;
64667;SDS011;51077;42.716;23.344;2023-12-20T06:56:34;45.77;;;27.27;;
64667;SDS011;51077;42.716;23.344;2023-12-20T06:58:59;52.57;;;29.57;;
64667;SDS011;51077;42.716;23.344;2023-12-20T07:01:25;43.80;;;28.30;;
64667;SDS011;51077;42.716;23.344;2023-12-20T07:03:50;51.20;;;28.77;;
64667;SDS011;51077;42.716;23.344;2023-12-20T07:06:15;46.77;;;27.60;;
64667;SDS011;51077;42.716;23.344;2023-12-20T07:08:42;49.75;;;27.98;;
64667;SDS011;51077;42.716;23.344;2023-12-20T07:11:07;50.27;;;28.13;;
64667;SDS011;51077;42.716;23.344;2023-12-20T07:13:33;46.10;;;27.27;;
64667;SDS011;51077;42.716;23.344;2023-12-20T07:15:58;47.23;;;28.83;;
64667;SDS011;51077;42.716;23.344;2023-12-20T07:18:24;51.63;;;29.43;;
64667;SDS011;51077;42.716;23.344;2023-12-20T07:20:49;48.13;;;28.33;;
64667;SDS011;51077;42.716;23.344;2023-12-20T07:23:15;47.97;;;27.37;;
64667;SDS011;51077;42.716;23.344;2023-12-20T07:25:40;47.67;;;28.00;;
64667;SDS011;51077;42.716;23.344;2023-12-20T07:28:05;46.97;;;28.23;;
64667;SDS011;51077;42.716;23.344;2023-12-20T07:30:31;50.73;;;29.50;;
64667;SDS011;51077;42.716;23.344;2023-12-20T07:32:56;47.67;;;29.37;;
64667;SDS011;51077;42.716;23.344;2023-12-20T07:35:23;48.47;;;29.77;;
64667;SDS011;51077;42.716;23.344;2023-12-20T07:37:51;51.13;;;31.15;;
64667;SDS011;51077;42.716;23.344;2023-12-20T07:40:16;49.83;;;29.33;;
64667;SDS011;51077;42.716;23.344;2023-12-20T07:42:42;50.77;;;29.60;;
64667;SDS011;51077;42.716;23.344;2023-12-20T07:45:07;54.87;;;29.67;;
64667;SDS011;51077;42.716;23.344;2023-12-20T07:47:35;51.97;;;31.00;;
64667;SDS011;51077;42.716;23.344;2023-12-20T07:50:01;53.33;;;31.27;;
64667;SDS011;51077;42.716;23.344;2023-12-20T07:52:27;53.33;;;30.40;;
64667;SDS011;51077;42.716;23.344;2023-12-20T07:54:54;52.40;;;30.50;;
64667;SDS011;51077;42.716;23.344;2023-12-20T07:57:19;55.83;;;31.80;;
64667;SDS011;51077;42.716;23.344;2023-12-20T07:59:44;56.40;;;31.97;;
64667;SDS011;51077;42.716;23.344;2023-12-20T08:02:10;51.60;;;31.13;;
64667;SDS011;51077;42.716;23.344;2023-12-20T08:04:35;54.33;;;31.03;;
64667;SDS011;51077;42.716;23.344;2023-12-20T08:07:00;58.47;;;33.67;;
64667;SDS011;51077;42.716;23.344;2023-12-20T08:09:26;57.23;;;33.27;;
64667;SDS011;51077;42.716;23.344;2023-12-20T08:11:51;53.83;;;31.63;;
64667;SDS011;51077;42.716;23.344;2023-12-20T08:14:17;51.00;;;32.20;;
64667;SDS011;51077;42.716;23.344;2023-12-20T08:16:42;59.70;;;35.07;;
64667;SDS011;51077;42.716;23.344;2023-12-20T08:19:07;61.60;;;32.87;;
64667;SDS011;51077;42.716;23.344;2023-12-20T08:21:33;59.93;;;33.03;;
64667;SDS011;51077;42.716;23.344;2023-12-20T08:23:59;57.08;;;34.05;;
64667;SDS011;51077;42.716;23.344;2023-12-20T08:26:25;67.80;;;34.47;;
64667;SDS011;51077;42.716;23.344;2023-12-20T08:28:51;62.00;;;35.73;;
64667;SDS011;51077;42.716;23.344;2023-12-20T08:31:17;64.13;;;35.37;;
64667;SDS011;51077;42.716;23.344;2023-12-20T08:33:46;68.68;;;38.70;;
64667;SDS011;51077;42.716;23.344;2023-12-20T08:36:13;71.50;;;37.40;;
64667;SDS011;51077;42.716;23.344;2023-12-20T08:38:38;73.47;;;38.50;;
64667;SDS011;51077;42.716;23.344;2023-12-20T08:41:04;69.63;;;37.13;;
64667;SDS011;51077;42.716;23.344;2023-12-20T08:43:34;72.43;;;39.83;;
64667;SDS011;51077;42.716;23.344;2023-12-20T08:46:00;74.00;;;38.90;;
64667;SDS011;51077;42.716;23.344;2023-12-20T08:48:25;68.60;;;39.07;;
64667;SDS011;51077;42.716;23.344;2023-12-20T08:50:51;64.63;;;39.60;;
64667;SDS011;51077;42.716;23.344;2023-12-20T08:53:17;74.60;;;41.42;;
64667;SDS011;51077;42.716;23.344;2023-12-20T08:55:43;76.30;;;40.00;;
64667;SDS011;51077;42.716;23.344;2023-12-20T08:58:09;71.03;;;40.60;;
64667;SDS011;51077;42.716;23.344;2023-12-20T09:00:34;78.23;;;40.97;;
64667;SDS011;51077;42.716;23.344;2023-12-20T09:03:01;74.20;;;40.73;;
64667;SDS011;51077;42.716;23.344;2023-12-20T09:05:27;76.07;;;42.05;;
64667;SDS011;51077;42.716;23.344;2023-12-20T09:07:52;78.03;;;45.33;;
64667;SDS011;51077;42.716;23.344;2023-12-20T09:10:18;77.23;;;42.87;;
64667;SDS011;51077;42.716;23.344;2023-12-20T09:12:47;78.07;;;42.80;;
64667;SDS011;51077;42.716;23.344;2023-12-20T09:15:13;89.97;;;46.47;;
64667;SDS011;51077;42.716;23.344;2023-12-20T09:17:40;79.93;;;44.75;;
64667;SDS011;51077;42.716;23.344;2023-12-20T09:20:06;85.30;;;45.28;;
64667;SDS011;51077;42.716;23.344;2023-12-20T09:22:33;86.47;;;46.53;;
64667;SDS011;51077;42.716;23.344;2023-12-20T09:24:59;79.85;;;44.90;;
64667;SDS011;51077;42.716;23.344;2023-12-20T09:27:25;85.28;;;47.15;;
64667;SDS011;51077;42.716;23.344;2023-12-20T09:29:50;87.30;;;46.83;;
64667;SDS011;51077;42.716;23.344;2023-12-20T09:32:16;81.50;;;46.20;;
64667;SDS011;51077;42.716;23.344;2023-12-20T09:34:41;83.83;;;46.17;;
64667;SDS011;51077;42.716;23.344;2023-12-20T09:37:07;80.17;;;45.77;;
64667;SDS011;51077;42.716;23.344;2023-12-20T09:39:32;87.30;;;47.05;;
64667;SDS011;51077;42.716;23.344;2023-12-20T09:42:04;87.50;;;46.67;;
64667;SDS011;51077;42.716;23.344;2023-12-20T09:44:31;85.05;;;49.05;;
64667;SDS011;51077;42.716;23.344;2023-12-20T09:46:58;85.68;;;45.05;;
64667;SDS011;51077;42.716;23.344;2023-12-20T09:49:25;89.25;;;45.55;;
64667;SDS011;51077;42.716;23.344;2023-12-20T09:51:53;83.20;;;46.25;;
64667;SDS011;51077;42.716;23.344;2023-12-20T09:54:19;83.72;;;45.83;;
64667;SDS011;51077;42.716;23.344;2023-12-20T09:56:46;92.85;;;49.47;;
64667;SDS011;51077;42.716;23.344;2023-12-20T09:59:12;87.37;;;47.37;;
64667;SDS011;51077;42.716;23.344;2023-12-20T10:01:38;89.80;;;48.22;;
64667;SDS011;51077;42.716;23.344;2023-12-20T10:04:05;94.10;;;47.38;;
64667;SDS011;51077;42.716;23.344;2023-12-20T10:06:43;87.80;;;47.70;;
64667;SDS011;51077;42.716;23.344;2023-12-20T10:09:09;85.25;;;47.33;;
64667;SDS011;51077;42.716;23.344;2023-12-20T10:11:36;87.70;;;47.92;;
64667;SDS011;51077;42.716;23.344;2023-12-20T10:14:02;79.30;;;45.55;;
64667;SDS011;51077;42.716;23.344;2023-12-20T10:16:28;82.70;;;45.78;;
64667;SDS011;51077;42.716;23.344;2023-12-20T10:18:54;85.03;;;47.95;;
64667;SDS011;51077;42.716;23.344;2023-12-20T10:21:21;79.95;;;45.00;;
64667;SDS011;51077;42.716;23.344;2023-12-20T10:23:47;82.32;;;44.72;;
64667;SDS011;51077;42.716;23.344;2023-12-20T10:26:25;80.30;;;45.58;;
64667;SDS011;51077;42.716;23.344;2023-12-20T10:28:53;84.70;;;44.75;;
64667;SDS011;51077;42.716;23.344;2023-12-20T10:31:26;83.35;;;45.08;;
64667;SDS011;51077;42.716;23.344;2023-12-20T10:33:51;72.13;;;43.42;;
64667;SDS011;51077;42.716;23.344;2023-12-20T10:36:17;82.17;;;44.13;;
64667;SDS011;51077;42.716;23.344;2023-12-20T10:38:42;82.23;;;43.87;;
64667;SDS011;51077;42.716;23.344;2023-12-20T10:41:09;79.35;;;44.67;;
64667;SDS011;51077;42.716;23.344;2023-12-20T10:43:35;89.63;;;47.50;;
64667;SDS011;51077;42.716;23.344;2023-12-20T10:46:03;77.30;;;43.10;;
64667;SDS011;51077;42.716;23.344;2023-12-20T10:48:30;84.25;;;45.00;;
64667;SDS011;51077;42.716;23.344;2023-12-20T10:50:57;82.50;;;45.22;;
64667;SDS011;51077;42.716;23.344;2023-12-20T10:53:23;84.53;;;46.42;;
64667;SDS011;51077;42.716;23.344;2023-12-20T10:55:50;76.75;;;45.75;;
64667;SDS011;51077;42.716;23.344;2023-12-20T10:58:21;80.47;;;45.60;;
64667;SDS011;51077;42.716;23.344;2023-12-20T11:00:49;73.30;;;42.80;;
64667;SDS011;51077;42.716;23.344;2023-12-20T11:03:21;88.22;;;45.17;;
64667;SDS011;51077;42.716;23.344;2023-12-20T11:05:54;83.30;;;44.63;;
64667;SDS011;51077;42.716;23.344;2023-12-20T11:08:34;81.72;;;45.17;;
64667;SDS011;51077;42.716;23.344;2023-12-20T11:11:20;81.03;;;45.08;;
64667;SDS011;51077;42.716;23.344;2023-12-20T11:14:15;81.25;;;45.22;;
64667;SDS011;51077;42.716;23.344;2023-12-20T11:16:47;80.38;;;44.10;;
64667;SDS011;51077;42.716;23.344;2023-12-20T11:19:12;81.00;;;45.20;;
64667;SDS011;51077;42.716;23.344;2023-12-20T11:21:41;73.20;;;42.58;;
64667;SDS011;51077;42.716;23.344;2023-12-20T11:24:06;80.50;;;45.50;;
64667;SDS011;51077;42.716;23.344;2023-12-20T11:26:32;80.03;;;44.60;;
64667;SDS011;51077;42.716;23.344;2023-12-20T11:29:43;80.43;;;45.05;;
64667;SDS011;51077;42.716;23.344;2023-12-20T11:32:03;75.25;;;42.75;;
64667;SDS011;51077;42.716;23.344;2023-12-20T11:34:48;72.43;;;43.03;;
64667;SDS011;51077;42.716;23.344;2023-12-20T11:37:16;76.38;;;41.65;;
64667;SDS011;51077;42.716;23.344;2023-12-20T11:39:42;77.10;;;42.97;;
64667;SDS011;51077;42.716;23.344;2023-12-20T11:42:09;74.30;;;42.13;;
64667;SDS011;51077;42.716;23.344;2023-12-20T11:44:36;77.43;;;41.90;;
64667;SDS011;51077;42.716;23.344;2023-12-20T11:47:02;73.28;;;42.10;;
64667;SDS011;51077;42.716;23.344;2023-12-20T11:49:28;69.87;;;39.83;;
64667;SDS011;51077;42.716;23.344;2023-12-20T11:51:56;69.43;;;40.60;;
64667;SDS011;51077;42.716;23.344;2023-12-20T11:54:21;75.18;;;42.53;;
64667;SDS011;51077;42.716;23.344;2023-12-20T11:56:47;72.53;;;42.77;;
64667;SDS011;51077;42.716;23.344;2023-12-20T11:59:13;74.10;;;42.00;;
64667;SDS011;51077;42.716;23.344;2023-12-20T12:01:38;75.20;;;43.10;;
64667;SDS011;51077;42.716;23.344;2023-12-20T12:04:06;73.00;;;41.03;;
64667;SDS011;51077;42.716;23.344;2023-12-20T12:06:32;74.20;;;42.85;;
64667;SDS011;51077;42.716;23.344;2023-12-20T12:08:58;72.93;;;40.45;;
64667;SDS011;51077;42.716;23.344;2023-12-20T12:11:23;77.43;;;40.60;;
64667;SDS011;51077;42.716;23.344;2023-12-20T12:13:49;70.10;;;40.38;;
64667;SDS011;51077;42.716;23.344;2023-12-20T12:16:19;73.83;;;40.37;;
64667;SDS011;51077;42.716;23.344;2023-12-20T12:18:45;72.85;;;41.05;;
64667;SDS011;51077;42.716;23.344;2023-12-20T12:21:10;71.57;;;40.10;;
64667;SDS011;51077;42.716;23.344;2023-12-20T12:23:45;68.57;;;39.95;;
64667;SDS011;51077;42.716;23.344;2023-12-20T12:26:11;68.73;;;39.63;;
64667;SDS011;51077;42.716;23.344;2023-12-20T12:28:36;67.80;;;39.07;;
64667;SDS011;51077;42.716;23.344;2023-12-20T12:31:04;73.80;;;40.80;;
64667;SDS011;51077;42.716;23.344;2023-12-20T12:33:30;68.83;;;40.00;;
64667;SDS011;51077;42.716;23.344;2023-12-20T12:35:55;63.33;;;38.57;;
64667;SDS011;51077;42.716;23.344;2023-12-20T12:38:21;72.07;;;41.03;;
64667;SDS011;51077;42.716;23.344;2023-12-20T12:40:47;64.22;;;37.53;;
64667;SDS011;51077;42.716;23.344;2023-12-20T12:43:12;68.47;;;38.87;;
64667;SDS011;51077;42.716;23.344;2023-12-20T12:45:38;64.97;;;37.40;;
64667;SDS011;51077;42.716;23.344;2023-12-20T12:48:03;66.50;;;37.30;;
64667;SDS011;51077;42.716;23.344;2023-12-20T12:50:30;65.88;;;39.00;;
64667;SDS011;51077;42.716;23.344;2023-12-20T12:52:56;69.55;;;40.58;;
64667;SDS011;51077;42.716;23.344;2023-12-20T12:55:21;65.40;;;38.10;;
64667;SDS011;51077;42.716;23.344;2023-12-20T12:57:47;63.37;;;37.93;;
64667;SDS011;51077;42.716;23.344;2023-12-20T13:00:12;60.27;;;35.83;;
64667;SDS011;51077;42.716;23.344;2023-12-20T13:02:38;66.40;;;37.40;;
64667;SDS011;51077;42.716;23.344;2023-12-20T13:05:06;61.03;;;36.75;;
64667;SDS011;51077;42.716;23.344;2023-12-20T13:07:32;58.88;;;35.92;;
64667;SDS011;51077;42.716;23.344;2023-12-20T13:09:58;62.77;;;36.00;;
64667;SDS011;51077;42.716;23.344;2023-12-20T13:12:23;59.13;;;34.30;;
64667;SDS011;51077;42.716;23.344;2023-12-20T13:14:49;58.87;;;35.17;;
64667;SDS011;51077;42.716;23.344;2023-12-20T13:17:14;59.70;;;34.60;;
64667;SDS011;51077;42.716;23.344;2023-12-20T13:19:40;60.53;;;35.15;;
64667;SDS011;51077;42.716;23.344;2023-12-20T13:22:05;60.70;;;34.43;;
64667;SDS011;51077;42.716;23.344;2023-12-20T13:24:31;61.10;;;35.70;;
64667;SDS011;51077;42.716;23.344;2023-12-20T13:26:57;61.20;;;35.15;;
64667;SDS011;51077;42.716;23.344;2023-12-20T13:29:23;59.80;;;33.53;;
64667;SDS011;51077;42.716;23.344;2023-12-20T13:31:51;58.15;;;34.20;;
64667;SDS011;51077;42.716;23.344;2023-12-20T13:34:16;57.53;;;34.43;;
64667;SDS011;51077;42.716;23.344;2023-12-20T13:36:42;57.03;;;33.47;;
64667;SDS011;51077;42.716;23.344;2023-12-20T13:39:10;55.47;;;33.20;;
64667;SDS011;51077;42.716;23.344;2023-12-20T13:41:37;56.83;;;32.55;;
64667;SDS011;51077;42.716;23.344;2023-12-20T13:44:02;56.90;;;33.23;;
64667;SDS011;51077;42.716;23.344;2023-12-20T13:46:28;58.93;;;34.47;;
64667;SDS011;51077;42.716;23.344;2023-12-20T13:48:54;59.95;;;33.90;;
64667;SDS011;51077;42.716;23.344;2023-12-20T13:51:19;55.70;;;34.47;;
64667;SDS011;51077;42.716;23.344;2023-12-20T13:53:46;56.97;;;32.92;;
64667;SDS011;51077;42.716;23.344;2023-12-20T13:56:13;59.30;;;36.05;;
64667;SDS011;51077;42.716;23.344;2023-12-20T13:58:39;76.77;;;47.53;;
64667;SDS011;51077;42.716;23.344;2023-12-20T14:01:05;75.63;;;46.72;;